createdAt,value
2023-03-12T00:01:14.063Z,1.24
2023-03-12T00:03:43.737Z,1.13
2023-03-12T00:06:11.812Z,1.14
2023-03-12T00:08:40.199Z,1.10
2023-03-12T00:11:09.419Z,1.13
2023-03-12T00:13:37.799Z,1.14
2023-03-12T00:16:08.377Z,1.24
2023-03-12T00:18:36.286Z,1.26
2023-03-12T00:21:06.662Z,1.39
2023-03-12T00:23:34.751Z,1.48
2023-03-12T00:26:02.982Z,1.51
2023-03-12T00:28:30.889Z,1.54
2023-03-12T00:30:59.268Z,1.57
2023-03-12T00:33:27.838Z,1.65
2023-03-12T00:35:56.268Z,1.71
2023-03-12T00:38:25.373Z,1.77
2023-03-12T00:40:52.978Z,1.83
2023-03-12T00:43:20.699Z,1.87
2023-03-12T00:45:48.307Z,1.93
2023-03-12T00:48:16.041Z,1.95
2023-03-12T00:50:43.628Z,1.94
2023-03-12T00:53:11.375Z,1.96
2023-03-12T00:55:40.541Z,1.95
2023-03-12T00:58:08.371Z,1.92
2023-03-12T01:00:36.309Z,1.93
2023-03-12T01:03:04.302Z,1.95
2023-03-12T01:05:33.534Z,2.00
2023-03-12T01:08:02.948Z,1.97
2023-03-12T01:10:30.576Z,2.02
2023-03-12T01:12:59.730Z,2.02
2023-03-12T01:15:28.669Z,2.04
2023-03-12T01:17:56.275Z,2.07
2023-03-12T01:20:24.779Z,2.14
2023-03-12T01:22:53.141Z,2.15
2023-03-12T01:25:21.061Z,2.22
2023-03-12T01:27:48.705Z,2.22
2023-03-12T01:30:18.132Z,2.19
2023-03-12T01:32:45.801Z,2.17
2023-03-12T01:35:13.941Z,2.12
2023-03-12T01:37:41.633Z,2.05
2023-03-12T01:40:15.511Z,1.98
2023-03-12T01:42:43.183Z,1.99
2023-03-12T01:45:44.645Z,1.65
2023-03-12T01:48:13.741Z,1.74
2023-03-12T01:50:41.651Z,1.71
2023-03-12T01:53:09.435Z,1.67
2023-03-12T01:55:37.702Z,1.59
2023-03-12T01:58:07.660Z,1.59
2023-03-12T02:00:35.754Z,1.53
2023-03-12T02:03:07.531Z,1.45
2023-03-12T02:05:44.215Z,1.35
2023-03-12T02:08:12.747Z,1.32
2023-03-12T02:10:40.621Z,1.29
2023-03-12T02:13:08.759Z,1.38
2023-03-12T02:15:37.442Z,1.48
2023-03-12T02:18:06.125Z,1.52
2023-03-12T02:20:41.139Z,1.51
2023-03-12T02:23:14.745Z,1.49
2023-03-12T02:25:47.337Z,1.53
2023-03-12T02:28:19.663Z,1.56
2023-03-12T02:30:50.965Z,1.56
2023-03-12T02:33:18.890Z,1.53
2023-03-12T02:35:47.599Z,1.58
2023-03-12T02:38:40.513Z,1.67
2023-03-12T02:41:15.327Z,1.71
2023-03-12T02:43:46.210Z,1.74
2023-03-12T02:46:15.689Z,1.76
2023-03-12T02:48:43.411Z,1.79
2023-03-12T02:51:11.601Z,1.87
2023-03-12T02:53:39.205Z,1.91
2023-03-12T02:56:08.147Z,1.97
2023-03-12T02:58:37.683Z,2.01
2023-03-12T03:01:05.751Z,2.06
2023-03-12T03:03:33.414Z,2.08
2023-03-12T03:06:01.259Z,1.98
2023-03-12T03:08:28.956Z,1.93
2023-03-12T03:10:56.980Z,1.80
2023-03-12T03:13:25.037Z,1.61
2023-03-12T03:15:54.278Z,1.53
2023-03-12T03:18:21.886Z,1.46
2023-03-12T03:20:56.177Z,1.38
2023-03-12T03:23:24.051Z,1.32
2023-03-12T03:25:52.728Z,1.28
2023-03-12T03:28:21.328Z,1.31
2023-03-12T03:30:49.659Z,1.20
2023-03-12T03:33:18.630Z,1.39
2023-03-12T03:35:46.554Z,1.36
2023-03-12T03:38:14.296Z,1.32
2023-03-12T03:40:42.003Z,0.89
2023-03-12T03:43:09.687Z,0.71
2023-03-12T03:45:37.335Z,0.67
2023-03-12T03:48:05.915Z,0.60
2023-03-12T03:50:36.032Z,0.63
2023-03-12T03:53:03.805Z,0.85
2023-03-12T03:55:31.963Z,1.31
2023-03-12T03:57:59.796Z,1.57
2023-03-12T04:00:27.847Z,1.62
2023-03-12T04:02:55.834Z,1.69
2023-03-12T04:05:24.673Z,1.80
2023-03-12T04:07:55.211Z,1.84
2023-03-12T04:10:26.504Z,1.83
2023-03-12T04:12:54.327Z,1.61
2023-03-12T04:15:22.316Z,1.58
2023-03-12T04:17:51.046Z,1.77
2023-03-12T04:20:20.427Z,1.83
2023-03-12T04:22:48.230Z,1.92
2023-03-12T04:25:18.744Z,2.14
2023-03-12T04:27:46.597Z,2.25
2023-03-12T04:30:15.206Z,2.33
2023-03-12T04:32:46.174Z,2.45
2023-03-12T04:35:14.115Z,2.50
2023-03-12T04:37:42.012Z,2.52
2023-03-12T04:40:12.916Z,2.40
2023-03-12T04:42:42.213Z,2.47
2023-03-12T04:45:12.206Z,2.65
2023-03-12T04:47:43.956Z,2.81
2023-03-12T04:50:12.809Z,2.82
2023-03-12T04:52:41.202Z,2.92
2023-03-12T04:55:09.950Z,2.96
2023-03-12T04:57:38.015Z,2.91
2023-03-12T05:00:13.206Z,3.05
2023-03-12T05:02:42.395Z,3.05
2023-03-12T05:05:12.311Z,3.04
2023-03-12T05:07:40.796Z,3.19
2023-03-12T05:10:09.212Z,3.19
2023-03-12T05:12:37.092Z,3.19
2023-03-12T05:15:07.616Z,3.01
2023-03-12T05:17:35.918Z,3.18
2023-03-12T05:20:05.885Z,3.12
2023-03-12T05:22:34.418Z,3.17
2023-03-12T05:25:03.256Z,3.24
2023-03-12T05:27:32.025Z,3.22
2023-03-12T05:30:00.148Z,3.24
2023-03-12T05:32:29.363Z,3.22
2023-03-12T05:34:57.001Z,3.20
2023-03-12T05:37:25.018Z,3.31
2023-03-12T05:39:54.700Z,3.35
2023-03-12T05:42:22.616Z,3.41
2023-03-12T05:44:51.374Z,3.51
2023-03-12T05:47:21.128Z,3.54
2023-03-12T05:49:50.292Z,3.60
2023-03-12T05:52:18.137Z,3.49
2023-03-12T05:54:45.937Z,3.60
2023-03-12T05:57:13.896Z,3.68
2023-03-12T05:59:42.490Z,3.66
2023-03-12T06:02:10.427Z,3.77
2023-03-12T06:04:38.730Z,3.83
2023-03-12T06:07:07.787Z,3.86
2023-03-12T06:09:36.937Z,3.87
2023-03-12T06:12:05.180Z,4.01
2023-03-12T06:14:33.557Z,3.91
2023-03-12T06:17:01.887Z,3.98
2023-03-12T06:19:30.321Z,4.04
2023-03-12T06:21:58.324Z,4.00
2023-03-12T06:24:29.466Z,4.06
2023-03-12T06:27:06.380Z,4.14
2023-03-12T06:29:34.196Z,4.12
2023-03-12T06:32:01.797Z,4.19
2023-03-12T06:34:30.070Z,4.20
2023-03-12T06:36:57.720Z,4.28
2023-03-12T06:39:25.488Z,4.34
2023-03-12T06:41:54.459Z,4.40
2023-03-12T06:44:22.381Z,4.44
2023-03-12T06:46:50.053Z,4.47
2023-03-12T06:49:17.719Z,4.53
2023-03-12T06:51:45.356Z,4.62
2023-03-12T06:54:13.184Z,4.62
2023-03-12T06:56:40.799Z,4.66
2023-03-12T06:59:09.882Z,4.70
2023-03-12T07:01:37.506Z,4.72
2023-03-12T07:04:05.414Z,4.76
2023-03-12T07:06:33.125Z,4.81
2023-03-12T07:09:00.740Z,4.89
2023-03-12T07:11:28.347Z,4.89
2023-03-12T07:13:56.082Z,4.92
2023-03-12T07:16:25.188Z,4.94
2023-03-12T07:18:52.842Z,4.96
2023-03-12T07:21:22.764Z,4.94
2023-03-12T07:23:50.747Z,4.95
2023-03-12T07:26:18.415Z,4.88
2023-03-12T07:28:46.426Z,4.90
2023-03-12T07:31:14.120Z,4.95
2023-03-12T07:33:43.366Z,4.93
2023-03-12T07:36:11.109Z,5.05
2023-03-12T07:38:39.260Z,5.02
2023-03-12T07:41:06.901Z,5.10
2023-03-12T07:43:34.687Z,5.17
2023-03-12T07:46:02.651Z,5.24
2023-03-12T07:48:30.301Z,5.23
2023-03-12T07:50:59.263Z,5.28
2023-03-12T07:53:26.830Z,5.34
2023-03-12T07:55:56.026Z,5.41
2023-03-12T07:58:23.842Z,5.46
2023-03-12T08:00:53.522Z,5.47
2023-03-12T08:03:21.393Z,5.52
2023-03-12T08:05:57.300Z,5.59
2023-03-12T08:08:26.432Z,5.62
2023-03-12T08:10:54.924Z,5.68
2023-03-12T08:13:23.836Z,5.62
2023-03-12T08:15:51.762Z,5.71
2023-03-12T08:18:20.488Z,5.76
2023-03-12T08:20:51.696Z,5.82
2023-03-12T08:23:19.689Z,5.85
2023-03-12T08:25:49.964Z,5.86
2023-03-12T08:28:18.796Z,5.82
2023-03-12T08:30:48.302Z,5.87
2023-03-12T08:33:16.250Z,5.84
2023-03-12T08:35:43.914Z,5.88
2023-03-12T08:38:11.671Z,5.86
2023-03-12T08:40:39.449Z,5.94
2023-03-12T08:43:08.878Z,5.97
2023-03-12T08:45:37.108Z,6.05
2023-03-12T08:48:04.855Z,6.06
2023-03-12T08:50:33.201Z,6.09
2023-03-12T08:53:00.884Z,6.14
2023-03-12T08:55:29.092Z,6.17
2023-03-12T08:57:57.453Z,6.17
2023-03-12T09:00:26.775Z,6.20
2023-03-12T09:02:54.477Z,6.21
2023-03-12T09:05:22.136Z,6.24
2023-03-12T09:07:50.398Z,6.30
2023-03-12T09:10:18.175Z,6.32
2023-03-12T09:12:45.875Z,6.31
2023-03-12T09:15:13.951Z,6.35
2023-03-12T09:17:42.919Z,6.46
2023-03-12T09:20:13.980Z,6.51
2023-03-12T09:22:42.710Z,6.63
2023-03-12T09:25:12.184Z,6.64
2023-03-12T09:27:41.312Z,6.61
2023-03-12T09:30:13.570Z,6.52
2023-03-12T09:32:41.279Z,6.62
2023-03-12T09:35:11.084Z,6.67
2023-03-12T09:37:38.959Z,6.70
2023-03-12T09:40:08.573Z,6.71
2023-03-12T09:42:47.250Z,6.62
2023-03-12T09:45:20.700Z,6.73
2023-03-12T09:47:52.332Z,6.83
2023-03-12T09:50:27.480Z,6.75
2023-03-12T09:53:00.650Z,6.89
2023-03-12T09:55:29.833Z,6.99
2023-03-12T09:57:59.096Z,7.00
2023-03-12T10:00:31.990Z,7.21
2023-03-12T10:03:17.554Z,7.31
2023-03-12T10:05:57.310Z,7.41
2023-03-12T10:08:32.765Z,7.55
2023-03-12T10:11:04.965Z,7.63
2023-03-12T10:13:47.335Z,7.86
2023-03-12T10:16:31.337Z,7.96
2023-03-12T10:19:09.396Z,8.05
2023-03-12T10:21:45.523Z,8.06
2023-03-12T10:24:25.408Z,8.28
2023-03-12T10:26:56.154Z,8.42
2023-03-12T10:29:27.313Z,8.44
2023-03-12T10:32:00.269Z,8.52
2023-03-12T10:34:34.271Z,8.57
2023-03-12T10:37:14.055Z,8.67
2023-03-12T10:39:41.980Z,8.76
2023-03-12T10:42:18.993Z,8.68
2023-03-12T10:44:48.354Z,8.64
2023-03-12T10:47:31.360Z,8.73
2023-03-12T10:50:14.103Z,8.12
2023-03-12T10:52:43.717Z,8.25
2023-03-12T10:55:14.471Z,8.31
2023-03-12T10:57:43.146Z,8.10
2023-03-12T11:00:18.584Z,8.28
2023-03-12T11:02:47.299Z,8.40
2023-03-12T11:05:23.977Z,8.40
2023-03-12T11:07:53.789Z,8.31
2023-03-12T11:10:41.831Z,8.54
2023-03-12T11:13:24.114Z,9.06
2023-03-12T11:15:53.054Z,9.16
2023-03-12T11:18:25.452Z,9.17
2023-03-12T11:20:56.417Z,8.86
2023-03-12T11:23:28.977Z,8.89
2023-03-12T11:26:01.756Z,8.80
2023-03-12T11:28:37.719Z,8.62
2023-03-12T11:31:09.520Z,8.57
2023-03-12T11:33:37.527Z,8.60
2023-03-12T11:36:20.973Z,8.51
2023-03-12T11:38:57.411Z,8.86
2023-03-12T11:41:38.951Z,8.67
2023-03-12T11:44:22.483Z,8.71
2023-03-12T11:47:05.081Z,8.67
2023-03-12T11:49:49.717Z,8.65
2023-03-12T11:52:26.713Z,8.64
2023-03-12T11:55:20.355Z,8.82
2023-03-12T11:58:00.971Z,8.74
2023-03-12T12:00:34.980Z,8.94
2023-03-12T12:03:51.072Z,8.92
2023-03-12T12:06:25.318Z,9.06
2023-03-12T12:09:08.271Z,9.08
2023-03-12T12:11:51.016Z,9.09
2023-03-12T12:14:33.914Z,9.04
2023-03-12T12:17:14.718Z,9.31
2023-03-12T12:19:56.099Z,9.25
2023-03-12T12:22:39.590Z,9.39
2023-03-12T12:25:28.797Z,9.36
2023-03-12T12:28:16.539Z,9.15
2023-03-12T12:31:01.044Z,9.44
2023-03-12T12:33:44.505Z,9.50
2023-03-12T12:36:12.675Z,9.67
2023-03-12T12:38:43.646Z,9.46
2023-03-12T12:41:15.179Z,9.72
2023-03-12T12:43:48.982Z,9.91
2023-03-12T12:46:19.687Z,10.15
2023-03-12T12:48:51.605Z,10.10
2023-03-12T12:51:22.069Z,9.97
2023-03-12T12:53:56.450Z,10.20
2023-03-12T12:56:32.273Z,10.03
2023-03-12T12:59:25.060Z,10.29
2023-03-12T13:01:55.483Z,10.09
2023-03-12T13:04:26.893Z,10.27
2023-03-12T13:06:56.254Z,10.16
2023-03-12T13:09:36.263Z,10.31
2023-03-12T13:12:17.158Z,9.90
2023-03-12T13:14:47.837Z,9.81
2023-03-12T13:17:27.682Z,9.61
2023-03-12T13:20:12.243Z,9.69
2023-03-12T13:23:04.650Z,9.84
2023-03-12T13:25:47.251Z,10.53
2023-03-12T13:28:39.009Z,10.67
2023-03-12T13:31:39.498Z,10.71
2023-03-12T13:34:53.171Z,11.13
2023-03-12T13:38:00.530Z,11.29
2023-03-12T13:40:54.023Z,11.68
2023-03-12T13:43:52.469Z,11.69
2023-03-12T13:46:33.735Z,11.33
2023-03-12T13:49:06.336Z,11.26
2023-03-12T13:51:34.222Z,11.18
2023-03-12T13:54:04.689Z,10.92
2023-03-12T13:56:34.776Z,10.47
2023-03-12T13:59:05.301Z,10.53
2023-03-12T14:01:37.515Z,10.64
2023-03-12T14:04:11.775Z,10.72
2023-03-12T14:06:59.445Z,10.70
2023-03-12T14:09:35.559Z,10.78
2023-03-12T14:12:09.864Z,10.77
2023-03-12T14:15:08.111Z,10.78
2023-03-12T14:17:40.212Z,11.11
2023-03-12T14:20:15.425Z,11.23
2023-03-12T14:22:45.837Z,11.25
2023-03-12T14:25:17.253Z,11.18
2023-03-12T14:27:48.497Z,11.06
2023-03-12T14:30:23.380Z,11.26
2023-03-12T14:32:56.022Z,11.18
2023-03-12T14:35:28.227Z,11.19
2023-03-12T14:38:00.627Z,11.00
2023-03-12T14:40:39.313Z,11.36
2023-03-12T14:43:22.805Z,11.46
2023-03-12T14:45:52.918Z,11.07
2023-03-12T14:48:24.927Z,11.05
2023-03-12T14:50:52.617Z,11.02
2023-03-12T14:53:24.763Z,11.36
2023-03-12T14:56:07.819Z,10.91
2023-03-12T14:58:44.014Z,10.88
2023-03-12T15:01:15.315Z,10.84
2023-03-12T15:03:46.518Z,10.73
2023-03-12T15:06:18.922Z,10.26
2023-03-12T15:08:47.075Z,10.36
2023-03-12T15:11:14.870Z,10.34
2023-03-12T15:13:43.869Z,10.17
2023-03-12T15:16:11.598Z,10.38
2023-03-12T15:18:39.404Z,10.15
2023-03-12T15:21:07.583Z,10.40
2023-03-12T15:23:38.924Z,10.17
2023-03-12T15:26:12.483Z,10.09
2023-03-12T15:28:40.336Z,10.13
2023-03-12T15:31:13.816Z,10.23
2023-03-12T15:33:43.451Z,10.27
2023-03-12T15:36:25.205Z,10.49
2023-03-12T15:38:56.049Z,10.61
2023-03-12T15:41:27.924Z,10.52
2023-03-12T15:43:57.535Z,10.59
2023-03-12T15:46:28.350Z,10.73
2023-03-12T15:48:58.744Z,10.41
2023-03-12T15:51:33.110Z,10.47
2023-03-12T15:54:02.515Z,10.89
2023-03-12T15:56:32.397Z,11.42
2023-03-12T15:59:02.374Z,11.74
2023-03-12T16:01:31.542Z,12.24
2023-03-12T16:03:59.676Z,12.49
2023-03-12T16:06:29.954Z,12.47
2023-03-12T16:09:00.413Z,12.53
2023-03-12T16:11:30.905Z,12.02
2023-03-12T16:14:04.579Z,12.12
2023-03-12T16:16:33.894Z,11.27
2023-03-12T16:19:01.742Z,10.72
2023-03-12T16:21:29.484Z,10.35
2023-03-12T16:23:57.108Z,10.18
2023-03-12T16:26:24.879Z,10.10
2023-03-12T16:28:52.528Z,10.31
2023-03-12T16:31:20.529Z,10.19
2023-03-12T16:33:49.885Z,10.13
2023-03-12T16:36:19.290Z,10.13
2023-03-12T16:38:47.562Z,9.90
2023-03-12T16:41:19.158Z,9.79
2023-03-12T16:43:49.490Z,9.73
2023-03-12T16:46:19.948Z,9.63
2023-03-12T16:48:52.878Z,9.67
2023-03-12T16:51:20.906Z,9.59
2023-03-12T16:53:58.495Z,9.48
2023-03-12T16:56:33.313Z,9.51
2023-03-12T16:59:04.508Z,9.76
2023-03-12T17:01:32.384Z,9.87
2023-03-12T17:04:01.471Z,9.87
2023-03-12T17:06:29.084Z,9.88
2023-03-12T17:08:56.645Z,9.90
2023-03-12T17:11:26.901Z,9.79
2023-03-12T17:13:57.895Z,9.73
2023-03-12T17:16:26.290Z,9.77
2023-03-12T17:18:54.072Z,9.70
2023-03-12T17:21:23.840Z,9.70
2023-03-12T17:23:51.764Z,9.69
2023-03-12T17:26:20.170Z,9.57
2023-03-12T17:28:47.981Z,9.36
2023-03-12T17:31:15.939Z,9.46
2023-03-12T17:33:44.422Z,9.36
2023-03-12T17:36:12.129Z,9.38
2023-03-12T17:38:41.107Z,9.16
2023-03-12T17:41:25.077Z,9.32
2023-03-12T17:43:54.628Z,9.19
2023-03-12T17:46:22.475Z,9.08
2023-03-12T17:48:50.117Z,8.94
2023-03-12T17:51:18.114Z,9.00
2023-03-12T17:53:47.439Z,8.99
2023-03-12T17:56:17.983Z,9.08
2023-03-12T17:58:46.448Z,8.99
2023-03-12T18:01:14.347Z,8.66
2023-03-12T18:03:44.024Z,8.75
2023-03-12T18:06:11.856Z,8.88
2023-03-12T18:08:40.021Z,8.79
2023-03-12T18:11:09.085Z,8.85
2023-03-12T18:13:38.377Z,8.84
2023-03-12T18:16:07.554Z,9.01
2023-03-12T18:18:35.514Z,9.08
2023-03-12T18:21:03.129Z,9.16
2023-03-12T18:23:30.785Z,9.15
2023-03-12T18:25:58.404Z,9.02
2023-03-12T18:28:27.434Z,9.06
2023-03-12T18:30:55.284Z,8.90
2023-03-12T18:33:23.036Z,9.10
2023-03-12T18:35:52.536Z,9.04
2023-03-12T18:38:21.848Z,8.95
2023-03-12T18:40:49.918Z,8.84
2023-03-12T18:43:17.522Z,8.76
2023-03-12T18:45:46.443Z,8.66
2023-03-12T18:48:14.037Z,8.71
2023-03-12T18:50:41.643Z,8.38
2023-03-12T18:53:09.444Z,8.53
2023-03-12T18:55:37.137Z,8.53
2023-03-12T18:58:04.784Z,8.32
2023-03-12T19:00:32.466Z,8.07
2023-03-12T19:03:01.565Z,8.22
2023-03-12T19:05:29.233Z,8.26
2023-03-12T19:07:56.908Z,8.16
2023-03-12T19:10:24.533Z,8.06
2023-03-12T19:12:54.022Z,8.20
2023-03-12T19:15:23.943Z,8.15
2023-03-12T19:17:51.740Z,8.39
2023-03-12T19:20:21.183Z,8.36
2023-03-12T19:22:48.854Z,8.34
2023-03-12T19:25:16.739Z,8.14
2023-03-12T19:27:44.472Z,7.98
2023-03-12T19:30:13.683Z,8.03
2023-03-12T19:32:44.058Z,8.01
2023-03-12T19:35:14.297Z,8.13
2023-03-12T19:37:43.838Z,8.32
2023-03-12T19:40:13.231Z,8.38
2023-03-12T19:42:41.212Z,8.50
2023-03-12T19:45:09.847Z,8.45
2023-03-12T19:47:37.587Z,8.55
2023-03-12T19:50:06.064Z,8.59
2023-03-12T19:52:33.665Z,8.55
2023-03-12T19:55:05.181Z,8.59
2023-03-12T19:57:33.597Z,8.58
2023-03-12T20:00:01.627Z,8.57
2023-03-12T20:02:32.149Z,8.46
2023-03-12T20:04:59.872Z,8.54
2023-03-12T20:07:27.540Z,8.47
2023-03-12T20:09:55.131Z,8.32
2023-03-12T20:12:24.410Z,8.22
2023-03-12T20:14:52.133Z,8.26
2023-03-12T20:17:19.904Z,8.06
2023-03-12T20:19:47.690Z,7.97
2023-03-12T20:22:15.557Z,8.19
2023-03-12T20:24:43.306Z,8.11
2023-03-12T20:27:10.883Z,8.13
2023-03-12T20:29:40.081Z,8.02
2023-03-12T20:32:07.672Z,8.15
2023-03-12T20:34:35.453Z,8.13
2023-03-12T20:37:03.051Z,8.21
2023-03-12T20:39:30.722Z,8.01
2023-03-12T20:41:58.321Z,7.92
2023-03-12T20:44:26.042Z,8.11
2023-03-12T20:46:54.989Z,8.20
2023-03-12T20:49:22.656Z,8.13
2023-03-12T20:51:50.278Z,8.30
2023-03-12T20:54:18.124Z,8.40
2023-03-12T20:56:45.768Z,8.40
2023-03-12T20:59:13.651Z,8.44
2023-03-12T21:01:41.328Z,8.47
2023-03-12T21:04:10.412Z,8.55
2023-03-12T21:06:38.032Z,8.62
2023-03-12T21:09:06.073Z,8.66
2023-03-12T21:11:33.798Z,8.63
2023-03-12T21:14:01.526Z,8.63
2023-03-12T21:16:29.120Z,8.64
2023-03-12T21:18:57.536Z,8.62
2023-03-12T21:21:26.918Z,8.71
2023-03-12T21:23:54.591Z,8.67
2023-03-12T21:26:22.309Z,8.71
2023-03-12T21:28:49.913Z,8.67
2023-03-12T21:31:18.941Z,8.78
2023-03-12T21:33:46.747Z,8.83
2023-03-12T21:36:15.979Z,8.80
2023-03-12T21:38:44.960Z,8.83
2023-03-12T21:41:15.220Z,8.88
2023-03-12T21:43:43.859Z,8.88
2023-03-12T21:46:13.048Z,8.92
2023-03-12T21:48:41.645Z,8.94
2023-03-12T21:51:11.640Z,8.96
2023-03-12T21:53:39.865Z,8.98
2023-03-12T21:56:10.453Z,8.93
2023-03-12T21:58:38.380Z,8.92
2023-03-12T22:01:08.464Z,8.93
2023-03-12T22:03:37.053Z,8.90
2023-03-12T22:06:05.604Z,8.91
2023-03-12T22:08:33.769Z,8.97
2023-03-12T22:11:01.893Z,9.02
2023-03-12T22:13:30.982Z,9.03
2023-03-12T22:16:00.656Z,9.06
2023-03-12T22:18:29.592Z,8.96
2023-03-12T22:20:59.653Z,8.99
2023-03-12T22:23:27.259Z,8.98
2023-03-12T22:25:55.263Z,8.93
2023-03-12T22:28:25.625Z,8.92
2023-03-12T22:30:59.770Z,8.98
2023-03-12T22:33:27.908Z,9.00
2023-03-12T22:35:55.978Z,8.97
2023-03-12T22:38:24.328Z,8.99
2023-03-12T22:40:54.240Z,8.99
2023-03-12T22:43:23.162Z,8.96
2023-03-12T22:45:53.747Z,8.98
2023-03-12T22:48:22.765Z,9.00
2023-03-12T22:50:54.347Z,9.05
2023-03-12T22:53:22.545Z,8.98
2023-03-12T22:55:57.571Z,8.98
2023-03-12T22:58:25.606Z,8.93
2023-03-12T23:00:59.469Z,8.94
2023-03-12T23:03:28.762Z,8.93
2023-03-12T23:05:57.072Z,8.92
2023-03-12T23:08:25.120Z,8.88
2023-03-12T23:10:54.267Z,8.80
2023-03-12T23:13:22.328Z,8.77
2023-03-12T23:15:50.615Z,8.79
2023-03-12T23:18:19.280Z,8.79
2023-03-12T23:20:48.585Z,8.83
2023-03-12T23:23:16.714Z,8.87
2023-03-12T23:25:52.589Z,8.86
2023-03-12T23:28:20.190Z,8.83
2023-03-12T23:30:54.470Z,8.78
2023-03-12T23:33:22.233Z,8.71
2023-03-12T23:35:58.417Z,8.70
2023-03-12T23:38:27.160Z,8.71
2023-03-12T23:40:54.974Z,8.68
2023-03-12T23:43:22.685Z,8.76
2023-03-12T23:45:56.628Z,8.83
2023-03-12T23:48:24.440Z,8.86
2023-03-12T23:50:52.054Z,8.84
2023-03-12T23:53:21.598Z,8.95
2023-03-12T23:55:57.069Z,9.05
2023-03-12T23:58:24.942Z,9.07
